sensor_id;sensor_type;location;lat;lon;timestamp;pressure;altitude;pressure_sealevel;temperature;humidity
60170;BME280;46042;49.444;6.862;2023-02-15T00:01:50;100016.47;;;-1.30;100.00
60170;BME280;46042;49.444;6.862;2023-02-15T00:04:19;100017.31;;;-1.32;100.00
60170;BME280;46042;49.444;6.862;2023-02-15T00:06:47;100013.88;;;-1.33;100.00
60170;BME280;46042;49.444;6.862;2023-02-15T00:09:14;100011.28;;;-1.37;100.00
60170;BME280;46042;49.444;6.862;2023-02-15T00:11:41;100001.75;;;-1.40;100.00
60170;BME280;46042;49.444;6.862;2023-02-15T00:14:14;100007.81;;;-1.42;100.00
60170;BME280;46042;49.444;6.862;2023-02-15T00:16:42;100003.50;;;-1.44;100.00
60170;BME280;46042;49.444;6.862;2023-02-15T00:19:11;99999.16;;;-1.46;100.00
60170;BME280;46042;49.444;6.862;2023-02-15T00:21:39;99995.69;;;-1.51;100.00
60170;BME280;46042;49.444;6.862;2023-02-15T00:24:08;99991.38;;;-1.52;100.00
60170;BME280;46042;49.444;6.862;2023-02-15T00:26:38;99990.47;;;-1.54;100.00
60170;BME280;46042;49.444;6.862;2023-02-15T00:29:05;99986.19;;;-1.55;100.00
60170;BME280;46042;49.444;6.862;2023-02-15T00:31:33;99974.97;;;-1.61;100.00
60170;BME280;46042;49.444;6.862;2023-02-15T00:34:15;99981.78;;;-1.72;100.00
60170;BME280;46042;49.444;6.862;2023-02-15T00:36:42;99983.50;;;-1.74;100.00
60170;BME280;46042;49.444;6.862;2023-02-15T00:39:10;99982.63;;;-1.78;100.00
60170;BME280;46042;49.444;6.862;2023-02-15T00:41:37;99992.97;;;-1.78;100.00
60170;BME280;46042;49.444;6.862;2023-02-15T00:44:04;99987.78;;;-1.78;100.00
60170;BME280;46042;49.444;6.862;2023-02-15T00:46:31;99994.66;;;-1.78;100.00
60170;BME280;46042;49.444;6.862;2023-02-15T00:48:58;99992.91;;;-1.81;100.00
60170;BME280;46042;49.444;6.862;2023-02-15T00:51:25;99986.88;;;-1.83;100.00
60170;BME280;46042;49.444;6.862;2023-02-15T00:53:52;99984.31;;;-1.84;100.00
60170;BME280;46042;49.444;6.862;2023-02-15T00:56:19;99987.75;;;-1.86;100.00
60170;BME280;46042;49.444;6.862;2023-02-15T00:58:46;99979.94;;;-1.89;100.00
60170;BME280;46042;49.444;6.862;2023-02-15T01:01:16;99979.94;;;-1.92;100.00
60170;BME280;46042;49.444;6.862;2023-02-15T01:03:43;99980.81;;;-1.94;100.00
60170;BME280;46042;49.444;6.862;2023-02-15T01:06:10;99984.22;;;-1.94;100.00
60170;BME280;46042;49.444;6.862;2023-02-15T01:08:38;99979.91;;;-1.95;100.00
60170;BME280;46042;49.444;6.862;2023-02-15T01:11:07;99984.22;;;-1.97;100.00
60170;BME280;46042;49.444;6.862;2023-02-15T01:13:34;99980.75;;;-1.97;100.00
60170;BME280;46042;49.444;6.862;2023-02-15T01:16:02;99972.13;;;-2.03;100.00
60170;BME280;46042;49.444;6.862;2023-02-15T01:18:30;99972.13;;;-2.04;100.00
60170;BME280;46042;49.444;6.862;2023-02-15T01:20:56;99969.50;;;-2.07;100.00
60170;BME280;46042;49.444;6.862;2023-02-15T01:23:25;99976.34;;;-2.14;100.00
60170;BME280;46042;49.444;6.862;2023-02-15T01:25:51;99979.78;;;-2.15;100.00
60170;BME280;46042;49.444;6.862;2023-02-15T01:28:18;99968.56;;;-2.17;100.00
60170;BME280;46042;49.444;6.862;2023-02-15T01:30:44;99980.59;;;-2.19;100.00
60170;BME280;46042;49.444;6.862;2023-02-15T01:33:11;99974.59;;;-2.18;100.00
60170;BME280;46042;49.444;6.862;2023-02-15T01:35:45;99974.59;;;-2.18;100.00
60170;BME280;46042;49.444;6.862;2023-02-15T01:38:14;99965.97;;;-2.22;100.00
60170;BME280;46042;49.444;6.862;2023-02-15T01:40:41;99972.00;;;-2.21;100.00
60170;BME280;46042;49.444;6.862;2023-02-15T01:43:11;99965.06;;;-2.24;100.00
60170;BME280;46042;49.444;6.862;2023-02-15T01:45:39;99961.63;;;-2.27;100.00
60170;BME280;46042;49.444;6.862;2023-02-15T01:48:24;99958.19;;;-2.30;100.00
60170;BME280;46042;49.444;6.862;2023-02-15T01:51:00;99953.00;;;-2.31;100.00
60170;BME280;46042;49.444;6.862;2023-02-15T01:53:34;99952.97;;;-2.34;100.00
60170;BME280;46042;49.444;6.862;2023-02-15T01:56:02;99957.25;;;-2.36;100.00
60170;BME280;46042;49.444;6.862;2023-02-15T01:58:30;99946.03;;;-2.40;100.00
60170;BME280;46042;49.444;6.862;2023-02-15T02:01:00;99950.34;;;-2.39;100.00
60170;BME280;46042;49.444;6.862;2023-02-15T02:03:38;99950.28;;;-2.44;100.00
60170;BME280;46042;49.444;6.862;2023-02-15T02:06:09;99950.28;;;-2.47;100.00
60170;BME280;46042;49.444;6.862;2023-02-15T02:08:37;99953.69;;;-2.51;100.00
60170;BME280;46042;49.444;6.862;2023-02-15T02:11:10;99951.94;;;-2.55;100.00
60170;BME280;46042;49.444;6.862;2023-02-15T02:13:37;99951.91;;;-2.57;100.00
60170;BME280;46042;49.444;6.862;2023-02-15T02:16:18;99957.97;;;-2.56;100.00
60170;BME280;46042;49.444;6.862;2023-02-15T02:27:29;99943.25;;;-2.63;100.00
60170;BME280;46042;49.444;6.862;2023-02-15T02:38:08;99933.75;;;-2.70;100.00
60170;BME280;46042;49.444;6.862;2023-02-15T02:40:48;99930.28;;;-2.73;100.00
60170;BME280;46042;49.444;6.862;2023-02-15T02:43:35;99928.56;;;-2.74;100.00
60170;BME280;46042;49.444;6.862;2023-02-15T02:46:22;99925.06;;;-2.79;100.00
60170;BME280;46042;49.444;6.862;2023-02-15T02:48:51;99921.59;;;-2.82;100.00
60170;BME280;46042;49.444;6.862;2023-02-15T02:51:18;99917.25;;;-2.87;100.00
60170;BME280;46042;49.444;6.862;2023-02-15T02:53:54;99908.66;;;-2.90;100.00
60170;BME280;46042;49.444;6.862;2023-02-15T02:56:27;99914.63;;;-2.91;100.00
60170;BME280;46042;49.444;6.862;2023-02-15T02:59:12;99908.66;;;-2.90;100.00
60170;BME280;46042;49.444;6.862;2023-02-15T03:01:53;99910.38;;;-2.88;100.00
60170;BME280;46042;49.444;6.862;2023-02-15T03:04:29;99905.19;;;-2.91;100.00
60170;BME280;46042;49.444;6.862;2023-02-15T03:07:01;99906.88;;;-2.94;100.00
60170;BME280;46042;49.444;6.862;2023-02-15T03:09:36;99906.00;;;-2.98;100.00
60170;BME280;46042;49.444;6.862;2023-02-15T03:12:11;99901.66;;;-3.01;100.00
60170;BME280;46042;49.444;6.862;2023-02-15T03:14:41;99901.63;;;-3.04;100.00
60170;BME280;46042;49.444;6.862;2023-02-15T03:17:09;99904.22;;;-3.02;100.00
60170;BME280;46042;49.444;6.862;2023-02-15T03:19:38;99906.78;;;-3.04;100.00
60170;BME280;46042;49.444;6.862;2023-02-15T03:22:10;99907.63;;;-3.08;100.00
60170;BME280;46042;49.444;6.862;2023-02-15T03:25:02;99905.06;;;-3.05;100.00
60170;BME280;46042;49.444;6.862;2023-02-15T03:27:37;99909.34;;;-3.05;100.00
60170;BME280;46042;49.444;6.862;2023-02-15T03:30:06;99900.69;;;-3.09;100.00
60170;BME280;46042;49.444;6.862;2023-02-15T03:32:34;99894.72;;;-3.08;100.00
60170;BME280;46042;49.444;6.862;2023-02-15T03:35:02;99899.88;;;-3.06;100.00
60170;BME280;46042;49.444;6.862;2023-02-15T03:37:48;99896.44;;;-3.05;100.00
60170;BME280;46042;49.444;6.862;2023-02-15T03:40:29;99893.03;;;-3.06;100.00
60170;BME280;46042;49.444;6.862;2023-02-15T03:43:39;99894.72;;;-3.06;100.00
60170;BME280;46042;49.444;6.862;2023-02-15T03:46:24;99899.03;;;-3.05;100.00
60170;BME280;46042;49.444;6.862;2023-02-15T03:48:58;99891.28;;;-3.05;100.00
60170;BME280;46042;49.444;6.862;2023-02-15T03:51:29;99885.28;;;-3.06;100.00
60170;BME280;46042;49.444;6.862;2023-02-15T03:54:07;99886.13;;;-3.07;100.00
60170;BME280;46042;49.444;6.862;2023-02-15T03:56:37;99887.00;;;-3.08;100.00
60170;BME280;46042;49.444;6.862;2023-02-15T03:59:05;99880.94;;;-3.10;100.00
60170;BME280;46042;49.444;6.862;2023-02-15T04:02:04;99880.97;;;-3.07;100.00
60170;BME280;46042;49.444;6.862;2023-02-15T04:04:38;99896.44;;;-3.07;100.00
60170;BME280;46042;49.444;6.862;2023-02-15T04:07:07;99897.31;;;-3.05;100.00
60170;BME280;46042;49.444;6.862;2023-02-15T04:09:34;99892.19;;;-3.02;100.00
60170;BME280;46042;49.444;6.862;2023-02-15T04:12:20;99892.19;;;-3.00;100.00
60170;BME280;46042;49.444;6.862;2023-02-15T04:14:46;99892.19;;;-3.02;100.00
60170;BME280;46042;49.444;6.862;2023-02-15T04:17:32;99892.16;;;-3.03;100.00
60170;BME280;46042;49.444;6.862;2023-02-15T04:19:58;99898.22;;;-3.00;100.00
60170;BME280;46042;49.444;6.862;2023-02-15T04:22:44;99898.19;;;-3.01;100.00
60170;BME280;46042;49.444;6.862;2023-02-15T04:25:29;99893.03;;;-3.04;100.00
60170;BME280;46042;49.444;6.862;2023-02-15T04:27:56;99899.06;;;-3.04;100.00
60170;BME280;46042;49.444;6.862;2023-02-15T04:30:24;99899.06;;;-3.02;100.00
60170;BME280;46042;49.444;6.862;2023-02-15T04:32:51;99907.66;;;-3.02;100.00
60170;BME280;46042;49.444;6.862;2023-02-15T04:35:18;99921.47;;;-2.96;100.00
60170;BME280;46042;49.444;6.862;2023-02-15T04:37:44;99928.34;;;-2.95;100.00
60170;BME280;46042;49.444;6.862;2023-02-15T04:40:13;99915.47;;;-2.92;100.00
60170;BME280;46042;49.444;6.862;2023-02-15T04:42:42;99918.06;;;-2.92;100.00
60170;BME280;46042;49.444;6.862;2023-02-15T04:45:08;99923.25;;;-2.89;100.00
60170;BME280;46042;49.444;6.862;2023-02-15T04:47:35;99909.53;;;-2.88;100.00
60170;BME280;46042;49.444;6.862;2023-02-15T04:50:02;99912.09;;;-2.88;100.00
60170;BME280;46042;49.444;6.862;2023-02-15T04:52:29;99898.34;;;-2.87;100.00
60170;BME280;46042;49.444;6.862;2023-02-15T04:54:55;99905.22;;;-2.89;100.00
60170;BME280;46042;49.444;6.862;2023-02-15T04:57:22;99905.22;;;-2.86;100.00
60170;BME280;46042;49.444;6.862;2023-02-15T04:59:49;99911.25;;;-2.87;100.00
60170;BME280;46042;49.444;6.862;2023-02-15T05:02:15;99909.59;;;-2.79;100.00
60170;BME280;46042;49.444;6.862;2023-02-15T05:04:42;99913.09;;;-2.74;100.00
60170;BME280;46042;49.444;6.862;2023-02-15T05:07:09;99917.41;;;-2.69;100.00
60170;BME280;46042;49.444;6.862;2023-02-15T05:09:35;99905.38;;;-2.70;100.00
60170;BME280;46042;49.444;6.862;2023-02-15T05:12:02;99907.94;;;-2.74;100.00
60170;BME280;46042;49.444;6.862;2023-02-15T05:14:29;99910.50;;;-2.74;100.00
60170;BME280;46042;49.444;6.862;2023-02-15T05:16:55;99906.16;;;-2.75;100.00
60170;BME280;46042;49.444;6.862;2023-02-15T05:19:22;99916.53;;;-2.73;100.00
60170;BME280;46042;49.444;6.862;2023-02-15T05:21:51;99917.41;;;-2.71;100.00
60170;BME280;46042;49.444;6.862;2023-02-15T05:24:17;99915.69;;;-2.69;100.00
60170;BME280;46042;49.444;6.862;2023-02-15T05:27:03;99916.59;;;-2.65;100.00
60170;BME280;46042;49.444;6.862;2023-02-15T05:29:48;99922.66;;;-2.59;100.00
60170;BME280;46042;49.444;6.862;2023-02-15T05:32:15;99925.25;;;-2.55;100.00
60170;BME280;46042;49.444;6.862;2023-02-15T05:34:42;99922.72;;;-2.54;100.00
60170;BME280;46042;49.444;6.862;2023-02-15T05:37:08;99926.16;;;-2.52;100.00
60170;BME280;46042;49.444;6.862;2023-02-15T05:39:35;99927.00;;;-2.56;100.00
60170;BME280;46042;49.444;6.862;2023-02-15T05:42:02;99920.97;;;-2.55;100.00
60170;BME280;46042;49.444;6.862;2023-02-15T05:44:28;99917.53;;;-2.55;100.00
60170;BME280;46042;49.444;6.862;2023-02-15T05:46:55;99927.88;;;-2.51;100.00
60170;BME280;46042;49.444;6.862;2023-02-15T05:49:22;99923.59;;;-2.49;100.00
60170;BME280;46042;49.444;6.862;2023-02-15T05:51:49;99933.00;;;-2.59;100.00
60170;BME280;46042;49.444;6.862;2023-02-15T05:54:15;99934.75;;;-2.53;100.00
60170;BME280;46042;49.444;6.862;2023-02-15T05:56:42;99936.50;;;-2.49;100.00
60170;BME280;46042;49.444;6.862;2023-02-15T05:59:09;99944.28;;;-2.47;100.00
60170;BME280;46042;49.444;6.862;2023-02-15T06:01:35;99940.84;;;-2.41;100.00
60170;BME280;46042;49.444;6.862;2023-02-15T06:04:02;99935.72;;;-2.37;100.00
60170;BME280;46042;49.444;6.862;2023-02-15T06:06:29;99942.69;;;-2.30;100.00
60170;BME280;46042;49.444;6.862;2023-02-15T06:08:55;99940.13;;;-2.26;100.00
60170;BME280;46042;49.444;6.862;2023-02-15T06:11:22;99939.31;;;-2.19;100.00
60170;BME280;46042;49.444;6.862;2023-02-15T06:13:48;99930.72;;;-2.20;100.00
60170;BME280;46042;49.444;6.862;2023-02-15T06:16:15;99935.00;;;-2.20;100.00
60170;BME280;46042;49.444;6.862;2023-02-15T06:18:42;99935.00;;;-2.17;100.00
60170;BME280;46042;49.444;6.862;2023-02-15T06:21:09;99930.69;;;-2.21;100.00
60170;BME280;46042;49.444;6.862;2023-02-15T06:23:36;99935.81;;;-2.23;100.00
60170;BME280;46042;49.444;6.862;2023-02-15T06:26:02;99930.66;;;-2.24;100.00
60170;BME280;46042;49.444;6.862;2023-02-15T06:28:29;99935.00;;;-2.20;100.00
60170;BME280;46042;49.444;6.862;2023-02-15T06:30:56;99934.09;;;-2.24;100.00
60170;BME280;46042;49.444;6.862;2023-02-15T06:33:23;99936.69;;;-2.24;100.00
60170;BME280;46042;49.444;6.862;2023-02-15T06:35:49;99934.13;;;-2.22;100.00
60170;BME280;46042;49.444;6.862;2023-02-15T06:38:16;99937.47;;;-2.33;100.00
60170;BME280;46042;49.444;6.862;2023-02-15T06:40:43;99933.22;;;-2.31;100.00
60170;BME280;46042;49.444;6.862;2023-02-15T06:43:10;99946.06;;;-2.38;100.00
60170;BME280;46042;49.444;6.862;2023-02-15T06:45:37;99941.78;;;-2.32;100.00
60170;BME280;46042;49.444;6.862;2023-02-15T06:48:04;99949.56;;;-2.27;100.00
60170;BME280;46042;49.444;6.862;2023-02-15T06:50:33;99944.38;;;-2.32;100.00
60170;BME280;46042;49.444;6.862;2023-02-15T06:53:00;99928.03;;;-2.32;100.00
60170;BME280;46042;49.444;6.862;2023-02-15T06:55:26;99934.81;;;-2.44;100.00
60170;BME280;46042;49.444;6.862;2023-02-15T06:57:53;99933.06;;;-2.51;100.00
60170;BME280;46042;49.444;6.862;2023-02-15T07:00:20;99937.31;;;-2.56;100.00
60170;BME280;46042;49.444;6.862;2023-02-15T07:02:58;99939.81;;;-2.62;100.00
60170;BME280;46042;49.444;6.862;2023-02-15T07:05:26;99929.44;;;-2.70;100.00
60170;BME280;46042;49.444;6.862;2023-02-15T07:07:58;99935.53;;;-2.63;100.00
60170;BME280;46042;49.444;6.862;2023-02-15T07:10:25;99932.94;;;-2.63;100.00
60170;BME280;46042;49.444;6.862;2023-02-15T07:12:52;99925.19;;;-2.66;100.00
60170;BME280;46042;49.444;6.862;2023-02-15T07:15:19;99927.75;;;-2.66;100.00
60170;BME280;46042;49.444;6.862;2023-02-15T07:17:49;99922.50;;;-2.76;100.00
60170;BME280;46042;49.444;6.862;2023-02-15T07:20:20;99917.38;;;-2.74;100.00
60170;BME280;46042;49.444;6.862;2023-02-15T07:22:48;99926.81;;;-2.76;100.00
60170;BME280;46042;49.444;6.862;2023-02-15T07:25:15;99915.59;;;-2.81;100.00
60170;BME280;46042;49.444;6.862;2023-02-15T07:27:42;99914.69;;;-2.85;100.00
60170;BME280;46042;49.444;6.862;2023-02-15T07:30:12;99908.72;;;-2.81;100.00
60170;BME280;46042;49.444;6.862;2023-02-15T07:32:39;99909.56;;;-2.82;100.00
60170;BME280;46042;49.444;6.862;2023-02-15T07:35:27;99907.81;;;-2.86;100.00
60170;BME280;46042;49.444;6.862;2023-02-15T07:37:54;99906.09;;;-2.86;100.00
60170;BME280;46042;49.444;6.862;2023-02-15T07:40:20;99905.28;;;-2.81;100.00
60170;BME280;46042;49.444;6.862;2023-02-15T07:42:50;99900.13;;;-2.80;100.00
60170;BME280;46042;49.444;6.862;2023-02-15T07:45:21;99908.75;;;-2.79;100.00
60170;BME280;46042;49.444;6.862;2023-02-15T07:47:48;99907.00;;;-2.79;100.00
60170;BME280;46042;49.444;6.862;2023-02-15T07:50:15;99897.53;;;-2.80;100.00
60170;BME280;46042;49.444;6.862;2023-02-15T07:52:42;99903.56;;;-2.81;100.00
60170;BME280;46042;49.444;6.862;2023-02-15T07:55:08;99896.75;;;-2.73;100.00
60170;BME280;46042;49.444;6.862;2023-02-15T07:57:45;99894.25;;;-2.63;100.00
60170;BME280;46042;49.444;6.862;2023-02-15T08:00:16;99899.44;;;-2.59;100.00
60170;BME280;46042;49.444;6.862;2023-02-15T08:02:55;99887.38;;;-2.61;100.00
60170;BME280;46042;49.444;6.862;2023-02-15T08:05:42;99890.88;;;-2.51;100.00
60170;BME280;46042;49.444;6.862;2023-02-15T08:08:10;99892.59;;;-2.53;100.00
60170;BME280;46042;49.444;6.862;2023-02-15T08:11:17;99895.13;;;-2.63;100.00
60170;BME280;46042;49.444;6.862;2023-02-15T08:14:14;99895.13;;;-2.58;100.00
60170;BME280;46042;49.444;6.862;2023-02-15T08:16:48;99898.56;;;-2.62;100.00
60170;BME280;46042;49.444;6.862;2023-02-15T08:21:45;99891.72;;;-2.59;100.00
60170;BME280;46042;49.444;6.862;2023-02-15T08:24:13;99886.53;;;-2.59;100.00
60170;BME280;46042;49.444;6.862;2023-02-15T08:26:40;99890.91;;;-2.50;100.00
60170;BME280;46042;49.444;6.862;2023-02-15T08:29:09;99886.66;;;-2.46;100.00
60170;BME280;46042;49.444;6.862;2023-02-15T08:31:36;99884.06;;;-2.41;100.00
60170;BME280;46042;49.444;6.862;2023-02-15T08:34:04;99890.16;;;-2.36;100.00
60170;BME280;46042;49.444;6.862;2023-02-15T08:36:31;99894.50;;;-2.26;100.00
60170;BME280;46042;49.444;6.862;2023-02-15T08:38:59;99895.38;;;-2.24;100.00
60170;BME280;46042;49.444;6.862;2023-02-15T08:41:31;99892.78;;;-2.27;100.00
60170;BME280;46042;49.444;6.862;2023-02-15T08:44:00;99900.59;;;-2.21;100.00
60170;BME280;46042;49.444;6.862;2023-02-15T08:46:29;99887.69;;;-2.18;100.00
60170;BME280;46042;49.444;6.862;2023-02-15T08:48:57;99896.34;;;-2.08;100.00
60170;BME280;46042;49.444;6.862;2023-02-15T08:51:29;99892.09;;;-2.01;100.00
60170;BME280;46042;49.444;6.862;2023-02-15T08:53:59;99889.50;;;-2.00;100.00
60170;BME280;46042;49.444;6.862;2023-02-15T08:56:28;99895.59;;;-1.91;100.00
60170;BME280;46042;49.444;6.862;2023-02-15T08:58:56;99896.47;;;-1.80;100.00
60170;BME280;46042;49.444;6.862;2023-02-15T09:01:25;99892.22;;;-1.73;100.00
60170;BME280;46042;49.444;6.862;2023-02-15T09:03:56;99883.59;;;-1.72;100.00
60170;BME280;46042;49.444;6.862;2023-02-15T09:06:23;99891.38;;;-1.70;100.00
60170;BME280;46042;49.444;6.862;2023-02-15T09:08:50;99889.66;;;-1.65;100.00
60170;BME280;46042;49.444;6.862;2023-02-15T09:11:19;99894.84;;;-1.67;100.00
60170;BME280;46042;49.444;6.862;2023-02-15T09:14:02;99890.50;;;-1.74;100.00
60170;BME280;46042;49.444;6.862;2023-02-15T09:16:31;99889.69;;;-1.67;100.00
60170;BME280;46042;49.444;6.862;2023-02-15T09:18:59;99888.84;;;-1.55;100.00
60170;BME280;46042;49.444;6.862;2023-02-15T09:21:28;99888.88;;;-1.44;100.00
60170;BME280;46042;49.444;6.862;2023-02-15T09:23:59;99889.78;;;-1.36;100.00
60170;BME280;46042;49.444;6.862;2023-02-15T09:26:28;99890.66;;;-1.34;100.00
60170;BME280;46042;49.444;6.862;2023-02-15T09:28:58;99894.09;;;-1.22;100.00
60170;BME280;46042;49.444;6.862;2023-02-15T09:31:29;99889.84;;;-1.08;100.00
60170;BME280;46042;49.444;6.862;2023-02-15T09:33:58;99885.56;;;-1.03;100.00
60170;BME280;46042;49.444;6.862;2023-02-15T09:36:27;99884.69;;;-0.94;100.00
60170;BME280;46042;49.444;6.862;2023-02-15T09:39:06;99890.72;;;-0.89;100.00
60170;BME280;46042;49.444;6.862;2023-02-15T10:02:08;99876.91;;;-0.52;100.00
60170;BME280;46042;49.444;6.862;2023-02-15T10:10:38;99892.44;;;-0.21;100.00
60170;BME280;46042;49.444;6.862;2023-02-15T10:26:43;99881.16;;;-0.09;100.00
60170;BME280;46042;49.444;6.862;2023-02-15T10:29:21;99879.25;;;0.54;100.00
60170;BME280;46042;49.444;6.862;2023-02-15T10:32:40;99877.94;;;1.23;100.00
60170;BME280;46042;49.444;6.862;2023-02-15T10:34:50;99878.63;;;1.46;100.00
60170;BME280;46042;49.444;6.862;2023-02-15T10:43:18;99869.00;;;1.57;100.00
60170;BME280;46042;49.444;6.862;2023-02-15T10:49:03;99854.88;;;1.84;100.00
60170;BME280;46042;49.444;6.862;2023-02-15T11:02:24;99839.69;;;3.92;100.00
60170;BME280;46042;49.444;6.862;2023-02-15T11:07:50;99828.97;;;5.59;100.00
60170;BME280;46042;49.444;6.862;2023-02-15T11:10:39;99826.31;;;5.25;92.73
60170;BME280;46042;49.444;6.862;2023-02-15T11:13:14;99817.13;;;5.10;91.83
60170;BME280;46042;49.444;6.862;2023-02-15T11:15:59;99814.38;;;5.51;94.98
60170;BME280;46042;49.444;6.862;2023-02-15T11:18:39;99814.59;;;5.42;90.58
60170;BME280;46042;49.444;6.862;2023-02-15T11:23:43;99803.88;;;7.03;85.39
60170;BME280;46042;49.444;6.862;2023-02-15T11:26:34;99797.19;;;6.94;82.29
60170;BME280;46042;49.444;6.862;2023-02-15T11:31:46;99801.00;;;6.55;85.21
60170;BME280;46042;49.444;6.862;2023-02-15T11:34:34;99799.09;;;6.01;84.84
60170;BME280;46042;49.444;6.862;2023-02-15T11:37:16;99786.88;;;6.31;88.89
60170;BME280;46042;49.444;6.862;2023-02-15T11:39:44;99785.47;;;7.32;85.69
60170;BME280;46042;49.444;6.862;2023-02-15T11:42:14;99786.84;;;7.93;80.63
60170;BME280;46042;49.444;6.862;2023-02-15T11:47:17;99775.41;;;8.42;78.26
60170;BME280;46042;49.444;6.862;2023-02-15T11:49:45;99766.03;;;8.34;78.26
60170;BME280;46042;49.444;6.862;2023-02-15T11:52:13;99772.25;;;8.09;77.73
60170;BME280;46042;49.444;6.862;2023-02-15T11:54:44;99767.06;;;7.59;78.32
60170;BME280;46042;49.444;6.862;2023-02-15T11:57:31;99766.91;;;8.11;80.10
60170;BME280;46042;49.444;6.862;2023-02-15T12:00:04;99757.44;;;8.54;76.65
60170;BME280;46042;49.444;6.862;2023-02-15T12:02:36;99760.53;;;8.64;75.58
60170;BME280;46042;49.444;6.862;2023-02-15T12:05:17;99754.38;;;8.88;73.18
60170;BME280;46042;49.444;6.862;2023-02-15T12:08:02;99752.91;;;8.58;71.92
60170;BME280;46042;49.444;6.862;2023-02-15T12:10:40;99745.69;;;8.86;73.43
60170;BME280;46042;49.444;6.862;2023-02-15T12:13:17;99746.56;;;9.88;68.87
60170;BME280;46042;49.444;6.862;2023-02-15T12:15:55;62137.28;;;-147.77;100.00
60170;BME280;46042;49.444;6.862;2023-02-15T12:18:36;99718.84;;;10.00;68.03
60170;BME280;46042;49.444;6.862;2023-02-15T12:21:10;62137.28;;;-147.77;100.00
60170;BME280;46042;49.444;6.862;2023-02-15T12:24:00;62137.28;;;-147.77;100.00
60170;BME280;46042;49.444;6.862;2023-02-15T12:26:34;62137.28;;;-147.77;100.00
60170;BME280;46042;49.444;6.862;2023-02-15T12:29:09;62137.28;;;-147.77;100.00
60170;BME280;46042;49.444;6.862;2023-02-15T12:31:42;62137.28;;;-147.77;100.00
60170;BME280;46042;49.444;6.862;2023-02-15T12:34:26;62137.28;;;-147.77;100.00
60170;BME280;46042;49.444;6.862;2023-02-15T12:36:59;62137.28;;;-147.77;100.00
60170;BME280;46042;49.444;6.862;2023-02-15T12:39:31;62137.28;;;-147.77;100.00
60170;BME280;46042;49.444;6.862;2023-02-15T12:41:59;62137.28;;;-147.77;100.00
60170;BME280;46042;49.444;6.862;2023-02-15T12:44:31;62137.28;;;-147.77;100.00
60170;BME280;46042;49.444;6.862;2023-02-15T12:47:16;62137.28;;;-147.77;100.00
60170;BME280;46042;49.444;6.862;2023-02-15T12:49:45;62137.28;;;-147.77;100.00
60170;BME280;46042;49.444;6.862;2023-02-15T12:52:29;62137.28;;;-147.77;100.00
60170;BME280;46042;49.444;6.862;2023-02-15T12:55:11;62137.28;;;-147.77;100.00
60170;BME280;46042;49.444;6.862;2023-02-15T12:57:43;62137.28;;;-147.77;100.00
60170;BME280;46042;49.444;6.862;2023-02-15T13:02:50;62137.28;;;-147.77;100.00
60170;BME280;46042;49.444;6.862;2023-02-15T13:05:37;62137.28;;;-147.77;100.00
60170;BME280;46042;49.444;6.862;2023-02-15T13:08:15;62137.28;;;-147.77;100.00
60170;BME280;46042;49.444;6.862;2023-02-15T13:13:21;62137.28;;;-147.77;100.00
60170;BME280;46042;49.444;6.862;2023-02-15T13:15:51;62137.28;;;-147.77;100.00
60170;BME280;46042;49.444;6.862;2023-02-15T13:21:15;62137.28;;;-147.77;100.00
60170;BME280;46042;49.444;6.862;2023-02-15T13:23:46;62137.28;;;-147.77;100.00
60170;BME280;46042;49.444;6.862;2023-02-15T13:26:18;62137.28;;;-147.77;100.00
60170;BME280;46042;49.444;6.862;2023-02-15T13:28:49;62137.28;;;-147.77;100.00
60170;BME280;46042;49.444;6.862;2023-02-15T13:31:20;62137.28;;;-147.77;100.00
60170;BME280;46042;49.444;6.862;2023-02-15T13:34:01;62137.28;;;-147.77;100.00
60170;BME280;46042;49.444;6.862;2023-02-15T13:36:49;62137.28;;;-147.77;100.00
60170;BME280;46042;49.444;6.862;2023-02-15T13:39:33;62137.28;;;-147.77;100.00
60170;BME280;46042;49.444;6.862;2023-02-15T13:42:22;62137.28;;;-147.77;100.00
60170;BME280;46042;49.444;6.862;2023-02-15T13:45:06;62137.28;;;-147.77;100.00
60170;BME280;46042;49.444;6.862;2023-02-15T13:50:27;62137.28;;;-147.77;100.00
60170;BME280;46042;49.444;6.862;2023-02-15T13:53:27;62137.28;;;-147.77;100.00
60170;BME280;46042;49.444;6.862;2023-02-15T14:04:28;62137.28;;;-147.77;100.00
60170;BME280;46042;49.444;6.862;2023-02-15T14:15:09;62137.28;;;-147.77;100.00
60170;BME280;46042;49.444;6.862;2023-02-15T14:20:34;62137.28;;;-147.77;100.00
60170;BME280;46042;49.444;6.862;2023-02-15T14:23:29;62137.28;;;-147.77;100.00
60170;BME280;46042;49.444;6.862;2023-02-15T14:26:26;62137.28;;;-147.77;100.00
60170;BME280;46042;49.444;6.862;2023-02-15T14:30:09;62137.28;;;-147.77;100.00
60170;BME280;46042;49.444;6.862;2023-02-15T14:32:11;62137.28;;;-147.77;100.00
60170;BME280;46042;49.444;6.862;2023-02-15T14:34:48;62137.28;;;-147.77;100.00
60170;BME280;46042;49.444;6.862;2023-02-15T14:37:21;62137.28;;;-147.77;100.00
60170;BME280;46042;49.444;6.862;2023-02-15T14:43:33;62137.28;;;-147.77;100.00
60170;BME280;46042;49.444;6.862;2023-02-15T14:46:10;62137.28;;;-147.77;100.00
60170;BME280;46042;49.444;6.862;2023-02-15T14:51:53;62137.28;;;-147.77;100.00
60170;BME280;46042;49.444;6.862;2023-02-15T15:02:46;62137.28;;;-147.77;100.00
60170;BME280;46042;49.444;6.862;2023-02-15T15:05:23;62137.28;;;-147.77;100.00
60170;BME280;46042;49.444;6.862;2023-02-15T15:07:53;62137.28;;;-147.77;100.00
60170;BME280;46042;49.444;6.862;2023-02-15T15:12:52;62137.28;;;-147.77;100.00
60170;BME280;46042;49.444;6.862;2023-02-15T15:18:03;62137.28;;;-147.77;100.00
60170;BME280;46042;49.444;6.862;2023-02-15T15:25:43;62137.28;;;-147.77;100.00
60170;BME280;46042;49.444;6.862;2023-02-15T15:31:21;62137.28;;;-147.77;100.00
60170;BME280;46042;49.444;6.862;2023-02-15T15:42:01;62137.28;;;-147.77;100.00
60170;BME280;46042;49.444;6.862;2023-02-15T15:50:24;99632.22;;;9.76;64.57
60170;BME280;46042;49.444;6.862;2023-02-15T15:52:56;99623.59;;;9.73;64.71
60170;BME280;46042;49.444;6.862;2023-02-15T15:55:27;99625.72;;;9.64;64.56
60170;BME280;46042;49.444;6.862;2023-02-15T15:58:03;99617.34;;;9.56;64.90